Time;durP1;ratioP1;P1;durP2;ratioP2;P2;SDS_P1;SDS_P2;PMS_P1;PMS_P2;Temp;Humidity;BMP_temperature;BMP_pressure;BME280_temperature;BME280_humidity;BME280_pressure;Samples;Min_cycle;Max_cycle;Signal;HPM_P1;HPM_P2
2021/09/14 00:01:14;;;;;;;26.35;23.10;;;;;;;;;;5038146;28;20029;-63
2021/09/14 00:03:40;;;;;;;30.05;24.83;;;;;;;;;;5033852;28;20448;-62
2021/09/14 00:06:06;;;;;;;29.55;23.27;;;;;;;;;;5037323;28;20045;-62
2021/09/14 00:08:32;;;;;;;27.77;23.77;;;;;;;;;;5036008;28;20116;-62
2021/09/14 00:10:58;;;;;;;26.75;23.90;;;;;;;;;;5037985;28;20041;-62
2021/09/14 00:13:24;;;;;;;27.25;23.67;;;;;;;;;;5044499;28;20075;-63
2021/09/14 00:15:51;;;;;;;27.17;22.90;;;;;;;;;;5033760;28;20038;-63
2021/09/14 00:18:17;;;;;;;34.70;24.23;;;;;;;;;;5040391;28;20280;-63
2021/09/14 00:20:43;;;;;;;27.38;23.40;;;;;;;;;;5040461;28;20038;-63
2021/09/14 00:23:09;;;;;;;28.52;24.33;;;;;;;;;;5041033;28;20032;-62
2021/09/14 00:25:35;;;;;;;30.55;23.08;;;;;;;;;;5046349;28;20029;-62
2021/09/14 00:28:01;;;;;;;31.10;23.80;;;;;;;;;;5032921;28;20095;-63
2021/09/14 00:30:27;;;;;;;29.08;23.83;;;;;;;;;;5034442;28;20350;-62
2021/09/14 00:32:53;;;;;;;25.67;22.60;;;;;;;;;;5036776;28;20030;-62
2021/09/14 00:35:19;;;;;;;28.40;23.30;;;;;;;;;;5036237;28;20155;-62
2021/09/14 00:37:45;;;;;;;27.00;23.10;;;;;;;;;;5045208;28;20082;-62
2021/09/14 00:40:12;;;;;;;28.35;23.13;;;;;;;;;;5035063;28;20025;-62
2021/09/14 00:42:38;;;;;;;29.25;24.83;;;;;;;;;;5032376;28;20024;-62
2021/09/14 00:45:04;;;;;;;28.70;24.33;;;;;;;;;;5025950;28;20373;-63
2021/09/14 00:47:30;;;;;;;25.58;22.83;;;;;;;;;;5034317;28;20095;-63
2021/09/14 00:49:58;;;;;;;26.00;22.80;;;;;;;;;;5043121;28;20045;-62
2021/09/14 00:52:24;;;;;;;27.80;24.63;;;;;;;;;;5033268;28;20082;-63
2021/09/14 00:54:50;;;;;;;29.23;24.55;;;;;;;;;;5032633;28;20063;-63
2021/09/14 00:57:16;;;;;;;28.63;24.63;;;;;;;;;;5038170;28;20057;-62
2021/09/14 00:59:42;;;;;;;29.45;23.60;;;;;;;;;;5037313;28;20094;-62
2021/09/14 01:02:08;;;;;;;26.85;23.20;;;;;;;;;;5033698;28;20033;-62
2021/09/14 01:04:34;;;;;;;30.55;24.75;;;;;;;;;;5036545;28;20385;-62
2021/09/14 01:07:01;;;;;;;29.73;24.15;;;;;;;;;;5043168;28;20033;-62
2021/09/14 01:09:30;;;;;;;29.48;24.58;;;;;;;;;;5045333;28;20017;-62
2021/09/14 01:11:56;;;;;;;29.55;24.40;;;;;;;;;;5035540;28;20037;-63
2021/09/14 01:14:22;;;;;;;28.50;24.20;;;;;;;;;;5032495;28;20060;-62
2021/09/14 01:16:48;;;;;;;28.15;24.63;;;;;;;;;;5034483;28;20033;-62
2021/09/14 01:19:14;;;;;;;27.40;24.38;;;;;;;;;;5042423;28;20099;-62
2021/09/14 01:21:40;;;;;;;27.42;24.42;;;;;;;;;;5041053;28;20464;-63
2021/09/14 01:24:07;;;;;;;29.33;24.65;;;;;;;;;;5035280;28;20028;-62
2021/09/14 01:26:33;;;;;;;29.58;24.02;;;;;;;;;;5032340;28;20183;-63
2021/09/14 01:29:05;;;;;;;28.20;24.10;;;;;;;;;;5043571;28;20053;-63
2021/09/14 01:31:30;;;;;;;26.15;22.02;;;;;;;;;;5045222;28;20052;-63
2021/09/14 01:33:56;;;;;;;25.45;21.67;;;;;;;;;;5032918;28;20521;-62
2021/09/14 01:36:24;;;;;;;27.27;22.83;;;;;;;;;;5041093;28;20068;-62
2021/09/14 01:38:50;;;;;;;28.67;24.27;;;;;;;;;;5039568;28;20443;-63
2021/09/14 01:41:16;;;;;;;29.77;25.15;;;;;;;;;;5039130;28;20048;-62
2021/09/14 01:43:42;;;;;;;30.67;26.90;;;;;;;;;;5043293;28;20100;-62
2021/09/14 01:46:08;;;;;;;31.30;25.98;;;;;;;;;;5041021;28;20083;-62
2021/09/14 01:48:34;;;;;;;27.98;24.88;;;;;;;;;;5039606;28;20017;-62
2021/09/14 01:51:00;;;;;;;28.00;23.80;;;;;;;;;;5039968;28;20041;-62
2021/09/14 01:53:27;;;;;;;32.67;25.38;;;;;;;;;;5043077;28;20040;-64
2021/09/14 01:55:56;;;;;;;29.35;25.02;;;;;;;;;;5042680;28;20026;-64
2021/09/14 01:58:22;;;;;;;36.95;26.42;;;;;;;;;;5038154;28;20024;-64
2021/09/14 02:01:13;;;;;;;32.38;26.90;;;;;;;;;;5031060;28;20021;-63
2021/09/14 03:00:46;;;;;;;33.00;26.00;;;;;;;;;;5030781;28;20068;-63
2021/09/14 03:03:12;;;;;;;32.00;25.55;;;;;;;;;;5038594;28;20029;-63
2021/09/14 03:05:38;;;;;;;33.70;26.80;;;;;;;;;;5035313;28;20464;-63
2021/09/14 03:08:04;;;;;;;32.33;27.30;;;;;;;;;;5037635;28;20117;-64
2021/09/14 03:10:30;;;;;;;32.55;26.65;;;;;;;;;;5036445;28;20496;-63
2021/09/14 03:12:56;;;;;;;30.00;25.25;;;;;;;;;;5033482;28;20032;-63
2021/09/14 03:15:22;;;;;;;28.40;25.23;;;;;;;;;;5041923;28;20033;-63
2021/09/14 03:17:48;;;;;;;29.95;26.10;;;;;;;;;;5039229;28;20013;-63
2021/09/14 03:20:14;;;;;;;30.75;25.55;;;;;;;;;;5038956;28;20485;-63
2021/09/14 03:22:40;;;;;;;30.98;26.42;;;;;;;;;;5035658;28;20022;-63
2021/09/14 03:25:06;;;;;;;31.33;25.27;;;;;;;;;;5044627;28;20036;-63
2021/09/14 03:27:34;;;;;;;30.13;24.98;;;;;;;;;;5045141;28;20504;-64
2021/09/14 03:30:00;;;;;;;32.15;25.65;;;;;;;;;;5035244;28;20042;-63
2021/09/14 03:32:26;;;;;;;34.47;26.95;;;;;;;;;;5041531;28;20044;-63
2021/09/14 03:34:52;;;;;;;34.53;28.25;;;;;;;;;;5042661;28;20033;-63
2021/09/14 03:37:18;;;;;;;29.08;24.75;;;;;;;;;;5042966;28;20100;-63
2021/09/14 03:39:44;;;;;;;33.20;25.65;;;;;;;;;;5034156;28;20197;-64
2021/09/14 03:42:10;;;;;;;29.40;25.77;;;;;;;;;;5033492;28;20030;-63
2021/09/14 03:44:36;;;;;;;33.22;26.77;;;;;;;;;;5036402;28;20039;-63
2021/09/14 03:47:02;;;;;;;32.58;26.75;;;;;;;;;;5035788;28;20092;-64
2021/09/14 03:49:28;;;;;;;32.75;27.65;;;;;;;;;;5036275;28;20025;-63
2021/09/14 03:51:54;;;;;;;30.52;26.13;;;;;;;;;;5045315;28;20052;-62
2021/09/14 03:54:20;;;;;;;32.00;26.27;;;;;;;;;;5039047;28;20119;-61
2021/09/14 03:56:46;;;;;;;27.80;24.60;;;;;;;;;;5038221;28;20591;-61
2021/09/14 03:59:12;;;;;;;27.35;24.30;;;;;;;;;;5035542;28;20105;-61
2021/09/14 04:01:40;;;;;;;31.55;25.88;;;;;;;;;;5035257;28;20485;-61
2021/09/14 04:04:54;;;;;;;29.27;25.95;;;;;;;;;;5034320;28;20041;-70
2021/09/14 04:07:37;;;;;;;33.90;26.15;;;;;;;;;;5042799;28;20033;-70
2021/09/14 04:09:47;;;;;;;32.42;26.70;;;;;;;;;;5032922;28;20029;-70
2021/09/14 04:12:13;;;;;;;27.42;21.30;;;;;;;;;;5038520;28;20040;-71
2021/09/14 04:14:39;;;;;;;28.27;23.95;;;;;;;;;;5038787;28;20029;-71
2021/09/14 04:17:05;;;;;;;29.65;25.60;;;;;;;;;;5034576;28;20021;-71
2021/09/14 04:19:31;;;;;;;31.73;26.75;;;;;;;;;;5042687;28;20500;-71
2021/09/14 04:21:57;;;;;;;35.10;28.17;;;;;;;;;;5043771;28;20036;-71
2021/09/14 04:24:23;;;;;;;34.50;28.35;;;;;;;;;;5045238;28;20021;-71
2021/09/14 04:26:49;;;;;;;35.67;27.98;;;;;;;;;;5039031;28;20392;-71
2021/09/14 04:29:15;;;;;;;27.90;24.35;;;;;;;;;;5043040;28;20045;-71
2021/09/14 04:31:41;;;;;;;31.15;25.33;;;;;;;;;;5041817;28;20111;-72
2021/09/14 04:34:07;;;;;;;32.72;26.42;;;;;;;;;;5038748;28;20049;-71
2021/09/14 04:36:33;;;;;;;31.50;26.73;;;;;;;;;;5039080;28;20031;-70
2021/09/14 04:38:59;;;;;;;31.98;26.85;;;;;;;;;;5041112;28;20029;-70
2021/09/14 04:41:25;;;;;;;42.58;30.30;;;;;;;;;;5041449;28;20079;-70
2021/09/14 04:43:51;;;;;;;39.65;30.95;;;;;;;;;;5045807;28;20037;-70
2021/09/14 04:46:17;;;;;;;38.92;29.85;;;;;;;;;;5034465;28;20112;-70
2021/09/14 04:48:43;;;;;;;39.05;29.98;;;;;;;;;;5026709;28;20018;-70
2021/09/14 04:51:09;;;;;;;39.15;32.25;;;;;;;;;;5032518;28;20033;-70
2021/09/14 04:53:35;;;;;;;40.05;30.02;;;;;;;;;;5037378;28;20461;-71
2021/09/14 04:56:01;;;;;;;39.80;29.95;;;;;;;;;;5041643;28;20112;-71
2021/09/14 04:58:27;;;;;;;32.47;26.85;;;;;;;;;;5041381;28;20500;-70
2021/09/14 05:00:53;;;;;;;32.67;25.48;;;;;;;;;;5042940;28;20123;-72
2021/09/14 05:03:19;;;;;;;30.85;26.02;;;;;;;;;;5034379;28;20072;-71
2021/09/14 05:05:45;;;;;;;34.25;26.27;;;;;;;;;;5037424;28;20065;-71
2021/09/14 05:08:11;;;;;;;26.08;21.60;;;;;;;;;;5041991;28;20057;-71
2021/09/14 05:10:38;;;;;;;26.42;22.60;;;;;;;;;;5041789;28;20041;-71
2021/09/14 05:13:04;;;;;;;27.50;24.35;;;;;;;;;;5033486;28;20087;-71
2021/09/14 05:15:30;;;;;;;37.95;24.65;;;;;;;;;;5040435;28;20024;-72
2021/09/14 05:17:56;;;;;;;34.83;28.38;;;;;;;;;;5033943;28;20432;-70
2021/09/14 05:20:23;;;;;;;34.03;27.88;;;;;;;;;;5026297;28;20074;-72
2021/09/14 05:22:59;;;;;;;32.17;26.83;;;;;;;;;;5035824;28;20029;-73
2021/09/14 05:25:25;;;;;;;26.95;23.77;;;;;;;;;;5047020;28;20029;-71
2021/09/14 05:27:51;;;;;;;28.25;23.38;;;;;;;;;;5040580;28;20037;-71
2021/09/14 05:30:17;;;;;;;28.95;24.67;;;;;;;;;;5036230;28;20102;-74
2021/09/14 05:32:43;;;;;;;30.95;26.13;;;;;;;;;;5036577;28;20006;-72
2021/09/14 05:35:09;;;;;;;29.13;24.42;;;;;;;;;;5034850;28;20025;-70
2021/09/14 05:37:35;;;;;;;29.13;23.20;;;;;;;;;;5031865;28;20487;-70
2021/09/14 05:40:01;;;;;;;27.63;21.75;;;;;;;;;;5033466;28;20099;-70
2021/09/14 05:42:27;;;;;;;29.15;22.60;;;;;;;;;;5031386;28;20025;-70
2021/09/14 05:44:53;;;;;;;29.15;24.20;;;;;;;;;;5032031;28;20033;-71
2021/09/14 05:47:19;;;;;;;26.80;23.33;;;;;;;;;;5030498;28;20507;-70
2021/09/14 05:49:45;;;;;;;27.35;23.55;;;;;;;;;;5030379;28;20026;-70
2021/09/14 05:52:11;;;;;;;28.48;23.15;;;;;;;;;;5032399;28;20025;-70
2021/09/14 05:54:37;;;;;;;26.55;23.55;;;;;;;;;;5039705;28;20553;-70
2021/09/14 05:57:03;;;;;;;29.17;23.02;;;;;;;;;;5034204;28;20127;-70
2021/09/14 05:59:29;;;;;;;27.52;23.48;;;;;;;;;;5033283;28;20052;-70
2021/09/14 06:01:55;;;;;;;28.23;22.50;;;;;;;;;;5032625;28;20022;-70
2021/09/14 06:04:21;;;;;;;29.38;23.88;;;;;;;;;;5028332;28;20499;-70
2021/09/14 06:06:47;;;;;;;24.42;21.80;;;;;;;;;;5030169;28;20104;-70
2021/09/14 06:09:13;;;;;;;24.90;21.30;;;;;;;;;;5031575;28;20017;-70
2021/09/14 06:11:39;;;;;;;25.05;21.23;;;;;;;;;;5031281;28;20037;-70
2021/09/14 06:14:05;;;;;;;25.67;20.23;;;;;;;;;;5030082;28;20037;-70
2021/09/14 06:16:31;;;;;;;24.17;19.17;;;;;;;;;;5031083;28;20030;-70
2021/09/14 06:18:57;;;;;;;24.73;21.10;;;;;;;;;;5043832;28;20135;-70
2021/09/14 06:21:23;;;;;;;27.15;20.95;;;;;;;;;;5044928;28;20033;-70
2021/09/14 06:23:49;;;;;;;22.48;19.88;;;;;;;;;;5032810;28;20018;-70
2021/09/14 06:26:15;;;;;;;22.20;19.80;;;;;;;;;;5034978;28;20491;-70
2021/09/14 06:28:41;;;;;;;25.10;18.58;;;;;;;;;;5031773;28;20076;-70
2021/09/14 06:31:07;;;;;;;20.88;18.52;;;;;;;;;;5031767;28;20037;-70
2021/09/14 06:33:33;;;;;;;19.35;17.17;;;;;;;;;;5034709;28;20033;-69
2021/09/14 06:35:59;;;;;;;21.85;17.45;;;;;;;;;;5036580;28;20492;-69
2021/09/14 06:38:25;;;;;;;23.77;16.38;;;;;;;;;;5033410;28;20025;-69
2021/09/14 06:40:51;;;;;;;29.38;17.20;;;;;;;;;;5034376;28;20036;-69
2021/09/14 06:43:17;;;;;;;19.08;15.57;;;;;;;;;;5036405;28;20033;-69
2021/09/14 06:45:43;;;;;;;20.50;16.40;;;;;;;;;;5033996;28;20079;-68
2021/09/14 06:48:10;;;;;;;17.85;15.52;;;;;;;;;;5042723;28;20492;-69
2021/09/14 06:50:36;;;;;;;23.65;16.35;;;;;;;;;;5037761;28;20077;-69
2021/09/14 06:53:02;;;;;;;25.13;16.60;;;;;;;;;;5036280;28;20048;-69
2021/09/14 06:55:28;;;;;;;23.73;16.15;;;;;;;;;;5035068;28;20404;-69
2021/09/14 06:57:54;;;;;;;21.10;16.60;;;;;;;;;;5038292;28;20022;-69
2021/09/14 07:00:22;;;;;;;20.38;15.65;;;;;;;;;;5037508;28;20033;-69
2021/09/14 07:02:48;;;;;;;18.40;16.40;;;;;;;;;;5036809;28;20477;-71
2021/09/14 07:05:14;;;;;;;22.15;16.95;;;;;;;;;;5036009;28;20113;-68
2021/09/14 07:07:40;;;;;;;22.25;16.35;;;;;;;;;;5035161;28;20393;-69
2021/09/14 07:10:06;;;;;;;19.08;16.30;;;;;;;;;;5037432;28;20026;-70
2021/09/14 07:12:32;;;;;;;17.90;15.95;;;;;;;;;;5036116;28;20391;-69
2021/09/14 07:14:59;;;;;;;20.85;16.70;;;;;;;;;;5038632;28;20021;-70
2021/09/14 07:17:25;;;;;;;17.73;15.82;;;;;;;;;;5036323;28;20040;-73
2021/09/14 07:19:51;;;;;;;17.15;15.32;;;;;;;;;;5037509;28;20052;-67
2021/09/14 07:22:18;;;;;;;20.33;15.48;;;;;;;;;;5036527;28;20113;-68
2021/09/14 07:24:44;;;;;;;19.83;15.73;;;;;;;;;;5033511;28;20535;-67
2021/09/14 07:27:10;;;;;;;20.25;15.07;;;;;;;;;;5037366;28;20028;-72
2021/09/14 07:29:36;;;;;;;18.25;15.50;;;;;;;;;;5036592;28;20034;-71
2021/09/14 07:32:03;;;;;;;18.10;15.68;;;;;;;;;;5037611;28;20492;-71
2021/09/14 07:34:30;;;;;;;17.58;15.63;;;;;;;;;;5036051;28;20571;-70
2021/09/14 07:36:56;;;;;;;17.85;15.95;;;;;;;;;;5033650;28;20053;-70
2021/09/14 07:39:22;;;;;;;19.95;15.77;;;;;;;;;;5033850;28;20101;-70
2021/09/14 07:41:48;;;;;;;18.90;15.07;;;;;;;;;;5032014;28;20124;-69
2021/09/14 07:44:14;;;;;;;17.27;15.57;;;;;;;;;;5034141;28;20033;-70
2021/09/14 07:46:40;;;;;;;16.25;14.55;;;;;;;;;;5033868;28;20037;-70
2021/09/14 07:49:06;;;;;;;17.27;15.30;;;;;;;;;;5036034;28;20021;-69
2021/09/14 07:51:32;;;;;;;17.25;15.15;;;;;;;;;;5038374;28;20032;-69
2021/09/14 07:53:58;;;;;;;20.63;15.30;;;;;;;;;;5038956;28;20074;-70
2021/09/14 07:56:24;;;;;;;22.45;16.35;;;;;;;;;;5043109;28;20026;-69
2021/09/14 07:58:50;;;;;;;17.75;15.23;;;;;;;;;;5044579;28;20481;-69
2021/09/14 08:01:16;;;;;;;19.08;15.18;;;;;;;;;;5040484;28;20040;-69
2021/09/14 08:03:42;;;;;;;18.35;14.65;;;;;;;;;;5030493;28;20433;-70
2021/09/14 08:06:08;;;;;;;15.68;13.55;;;;;;;;;;5036308;28;20025;-69
2021/09/14 08:08:34;;;;;;;17.75;14.75;;;;;;;;;;5034236;28;20025;-69
2021/09/14 08:11:00;;;;;;;16.08;14.18;;;;;;;;;;5040224;28;20041;-69
2021/09/14 08:13:26;;;;;;;17.00;14.35;;;;;;;;;;5042888;28;20048;-69
2021/09/14 08:15:53;;;;;;;19.85;14.43;;;;;;;;;;5033192;28;20032;-69
2021/09/14 08:18:19;;;;;;;18.07;14.87;;;;;;;;;;5034156;28;20025;-69
2021/09/14 08:20:45;;;;;;;18.42;15.07;;;;;;;;;;5022354;28;20044;-69
2021/09/14 08:23:11;;;;;;;16.60;14.30;;;;;;;;;;5025372;28;20060;-69
2021/09/14 08:25:37;;;;;;;16.48;14.77;;;;;;;;;;5034755;28;20053;-69
2021/09/14 08:28:04;;;;;;;16.92;15.02;;;;;;;;;;5032578;28;20049;-70
2021/09/14 08:30:30;;;;;;;16.25;14.18;;;;;;;;;;5034493;28;20029;-70
2021/09/14 08:32:56;;;;;;;20.00;14.55;;;;;;;;;;5032909;28;20079;-70
2021/09/14 08:35:22;;;;;;;17.90;14.52;;;;;;;;;;5033075;28;20052;-69
2021/09/14 08:37:48;;;;;;;17.77;14.02;;;;;;;;;;5035992;28;20025;-69
2021/09/14 08:40:15;;;;;;;21.33;13.68;;;;;;;;;;5034426;28;21715;-70
2021/09/14 08:42:41;;;;;;;20.40;14.27;;;;;;;;;;5043383;28;20067;-69
2021/09/14 08:45:08;;;;;;;21.48;13.80;;;;;;;;;;5032514;28;20468;-69
2021/09/14 08:47:36;;;;;;;17.80;14.20;;;;;;;;;;5037680;28;20547;-70
2021/09/14 08:50:02;;;;;;;18.52;13.70;;;;;;;;;;5035115;28;20034;-70
2021/09/14 08:52:28;;;;;;;17.63;14.55;;;;;;;;;;5038506;28;20100;-69
2021/09/14 08:54:54;;;;;;;15.73;14.10;;;;;;;;;;5030791;28;20117;-70
2021/09/14 08:57:20;;;;;;;17.50;14.05;;;;;;;;;;5039703;28;20024;-70
2021/09/14 08:59:47;;;;;;;15.73;14.00;;;;;;;;;;5036238;28;20392;-70
2021/09/14 09:02:16;;;;;;;16.95;13.98;;;;;;;;;;5024916;28;20021;-70
2021/09/14 09:04:54;;;;;;;16.08;13.63;;;;;;;;;;5033275;28;20423;-70
2021/09/14 09:07:29;;;;;;;14.40;12.95;;;;;;;;;;5035557;28;20029;-70
2021/09/14 09:09:55;;;;;;;18.15;12.77;;;;;;;;;;5032094;28;20079;-69
2021/09/14 09:12:21;;;;;;;14.82;12.98;;;;;;;;;;5033779;28;20029;-69
2021/09/14 09:14:48;;;;;;;15.10;13.57;;;;;;;;;;5033522;28;20029;-70
2021/09/14 09:17:18;;;;;;;16.08;13.50;;;;;;;;;;5024138;28;20022;-70
2021/09/14 09:19:54;;;;;;;14.90;13.27;;;;;;;;;;5032140;28;20492;-70
2021/09/14 09:22:22;;;;;;;15.35;13.15;;;;;;;;;;5032660;28;20107;-69
2021/09/14 09:24:50;;;;;;;16.75;13.43;;;;;;;;;;5031859;28;20029;-70
2021/09/14 09:27:16;;;;;;;;;;;;;;;;;;5035593;28;20017;-70
2021/09/14 09:29:42;;;;;;;15.35;13.43;;;;;;;;;;5031297;28;19913;-70
2021/09/14 09:32:08;;;;;;;17.38;14.13;;;;;;;;;;5031383;28;20038;-70
2021/09/14 09:34:34;;;;;;;16.23;13.45;;;;;;;;;;5033144;28;20489;-70
2021/09/14 09:37:03;;;;;;;14.55;13.05;;;;;;;;;;5031819;28;20163;-71
2021/09/14 09:39:37;;;;;;;14.85;13.20;;;;;;;;;;5030180;28;20033;-71
2021/09/14 09:42:05;;;;;;;15.68;13.32;;;;;;;;;;5032586;28;20025;-70
2021/09/14 09:44:31;;;;;;;15.15;13.48;;;;;;;;;;5033152;28;20029;-71
2021/09/14 09:47:00;;;;;;;14.93;13.43;;;;;;;;;;5032673;28;20025;-71
2021/09/14 09:49:26;;;;;;;15.98;12.88;;;;;;;;;;5027240;28;20076;-71
2021/09/14 09:51:53;;;;;;;14.88;13.38;;;;;;;;;;5033981;28;20100;-69
2021/09/14 09:54:19;;;;;;;19.25;12.48;;;;;;;;;;5033473;28;20110;-70
2021/09/14 09:56:45;;;;;;;16.90;13.60;;;;;;;;;;5018792;28;20580;-70
2021/09/14 09:59:15;;;;;;;13.90;12.40;;;;;;;;;;5033121;28;20382;-70
2021/09/14 10:01:42;;;;;;;15.90;12.60;;;;;;;;;;5031958;28;20100;-70
2021/09/14 10:04:08;;;;;;;15.48;13.05;;;;;;;;;;5031922;28;20029;-70
2021/09/14 10:06:36;;;;;;;15.38;13.43;;;;;;;;;;5033301;28;20029;-70
2021/09/14 10:09:02;;;;;;;14.40;12.88;;;;;;;;;;5032390;28;20025;-69
2021/09/14 10:11:29;;;;;;;15.20;13.60;;;;;;;;;;5032168;28;20037;-69
2021/09/14 10:14:14;;;;;;;15.20;13.18;;;;;;;;;;5032005;28;20045;-71
2021/09/14 10:16:45;;;;;;;15.00;13.40;;;;;;;;;;5030639;28;20548;-70
2021/09/14 10:19:14;;;;;;;14.57;13.10;;;;;;;;;;5028891;28;20060;-71
2021/09/14 10:21:41;;;;;;;13.75;12.18;;;;;;;;;;5030174;28;20092;-68
2021/09/14 10:24:18;;;;;;;14.88;13.02;;;;;;;;;;5033852;28;20038;-69
2021/09/14 10:26:43;;;;;;;14.27;12.77;;;;;;;;;;5029771;28;20171;-68
2021/09/14 10:29:13;;;;;;;16.25;13.73;;;;;;;;;;5034408;28;20080;-68
2021/09/14 10:31:39;;;;;;;16.17;13.52;;;;;;;;;;5031336;28;20485;-68
2021/09/14 10:34:07;;;;;;;15.10;13.32;;;;;;;;;;5029482;28;20023;-68
2021/09/14 10:36:34;;;;;;;14.35;12.52;;;;;;;;;;5031732;28;20097;-68
2021/09/14 10:39:00;;;;;;;14.20;12.80;;;;;;;;;;5032035;28;20022;-68
2021/09/14 10:41:39;;;;;;;15.23;13.02;;;;;;;;;;5030379;28;20100;-68
2021/09/14 10:44:08;;;;;;;16.42;13.75;;;;;;;;;;5028966;28;20041;-68
2021/09/14 10:46:35;;;;;;;14.68;13.05;;;;;;;;;;5032936;28;20044;-68
2021/09/14 10:49:01;;;;;;;14.85;13.35;;;;;;;;;;5030565;28;20554;-68
2021/09/14 10:51:27;;;;;;;14.25;12.75;;;;;;;;;;5028126;28;20037;-68
2021/09/14 10:53:57;;;;;;;15.73;13.43;;;;;;;;;;5029298;28;20022;-67
2021/09/14 10:56:24;;;;;;;15.63;13.48;;;;;;;;;;5030177;28;20033;-68
2021/09/14 10:58:50;;;;;;;14.80;13.20;;;;;;;;;;5028876;28;20029;-68
2021/09/14 11:01:23;;;;;;;17.13;13.40;;;;;;;;;;5030803;28;20310;-68
2021/09/14 11:03:51;;;;;;;14.63;13.00;;;;;;;;;;5029463;28;20021;-68
2021/09/14 11:06:18;;;;;;;18.27;13.13;;;;;;;;;;5029193;28;20022;-69
2021/09/14 11:08:45;;;;;;;14.98;13.38;;;;;;;;;;5030555;28;20370;-69
2021/09/14 11:11:16;;;;;;;15.02;13.43;;;;;;;;;;5028171;28;20037;-68
2021/09/14 11:13:42;;;;;;;16.23;13.57;;;;;;;;;;5028556;28;20366;-68
2021/09/14 11:16:08;;;;;;;14.85;13.35;;;;;;;;;;5030870;28;20036;-68
2021/09/14 11:18:35;;;;;;;16.50;13.02;;;;;;;;;;5033119;28;20381;-68
2021/09/14 11:21:17;;;;;;;15.57;13.88;;;;;;;;;;5034896;28;20049;-70
2021/09/14 11:23:47;;;;;;;14.95;13.40;;;;;;;;;;5030348;28;20037;-70
2021/09/14 11:26:14;;;;;;;14.88;13.27;;;;;;;;;;5032577;28;20465;-69
2021/09/14 11:28:41;;;;;;;15.93;13.65;;;;;;;;;;5034057;28;20045;-68
2021/09/14 11:31:12;;;;;;;15.23;13.73;;;;;;;;;;5034408;28;20045;-68
2021/09/14 11:33:42;;;;;;;14.98;13.35;;;;;;;;;;5032462;28;20029;-68
2021/09/14 11:36:08;;;;;;;14.35;12.93;;;;;;;;;;5032126;28;20029;-68
2021/09/14 11:38:34;;;;;;;16.52;14.27;;;;;;;;;;5033142;28;20389;-68
2021/09/14 11:41:01;;;;;;;17.27;13.57;;;;;;;;;;5031110;28;20055;-68
2021/09/14 11:43:29;;;;;;;15.35;13.75;;;;;;;;;;5032557;28;20120;-68
2021/09/14 11:45:56;;;;;;;15.52;13.80;;;;;;;;;;5032197;28;20551;-67
2021/09/14 11:48:22;;;;;;;17.37;13.33;;;;;;;;;;5035403;28;20017;-69
2021/09/14 11:50:48;;;;;;;16.25;13.98;;;;;;;;;;5031906;28;21610;-68
2021/09/14 11:53:16;;;;;;;15.27;13.67;;;;;;;;;;5031137;28;20048;-67
2021/09/14 11:55:43;;;;;;;16.33;14.10;;;;;;;;;;5032011;28;20306;-68
2021/09/14 11:58:09;;;;;;;14.23;12.77;;;;;;;;;;5032989;28;20025;-68
2021/09/14 12:00:38;;;;;;;19.13;13.80;;;;;;;;;;5033806;28;20028;-69
2021/09/14 12:03:04;;;;;;;15.02;13.38;;;;;;;;;;5035661;28;20434;-69
2021/09/14 12:05:32;;;;;;;15.15;13.55;;;;;;;;;;5034989;28;20104;-69
2021/09/14 12:07:58;;;;;;;16.45;14.70;;;;;;;;;;5029166;28;20048;-61
2021/09/14 12:10:25;;;;;;;17.13;14.65;;;;;;;;;;5035340;28;20028;-60
2021/09/14 12:12:52;;;;;;;18.43;14.50;;;;;;;;;;5028208;28;20408;-60
2021/09/14 12:15:19;;;;;;;18.10;14.43;;;;;;;;;;5030335;28;20254;-60
2021/09/14 12:17:45;;;;;;;17.42;14.38;;;;;;;;;;5034485;28;20030;-60
2021/09/14 12:20:12;;;;;;;15.65;14.05;;;;;;;;;;5033753;28;20029;-63
2021/09/14 12:22:38;;;;;;;16.98;14.25;;;;;;;;;;5031597;28;20493;-60
2021/09/14 12:25:04;;;;;;;16.67;13.40;;;;;;;;;;5029907;28;20021;-60
2021/09/14 12:27:30;;;;;;;15.18;12.95;;;;;;;;;;5026444;28;20033;-60
2021/09/14 12:29:56;;;;;;;16.10;13.75;;;;;;;;;;5033311;28;20497;-60
2021/09/14 12:32:22;;;;;;;17.13;13.63;;;;;;;;;;5033911;28;20057;-61
2021/09/14 12:34:48;;;;;;;20.25;14.30;;;;;;;;;;5033897;28;20036;-60
2021/09/14 12:37:15;;;;;;;16.15;14.00;;;;;;;;;;5031930;28;20029;-60
2021/09/14 12:39:41;;;;;;;21.40;14.70;;;;;;;;;;5032378;28;20107;-60
2021/09/14 12:42:07;;;;;;;21.58;13.40;;;;;;;;;;5030314;28;20041;-59
2021/09/14 12:44:33;;;;;;;17.83;13.55;;;;;;;;;;5034252;28;20021;-60
2021/09/14 12:46:59;;;;;;;15.55;13.77;;;;;;;;;;5032071;28;20064;-61
2021/09/14 12:49:25;;;;;;;16.88;14.68;;;;;;;;;;5034955;28;20021;-60
2021/09/14 12:51:53;;;;;;;21.05;14.70;;;;;;;;;;5031553;28;20392;-61
2021/09/14 12:54:19;;;;;;;18.17;14.30;;;;;;;;;;5033671;28;20017;-60
2021/09/14 12:56:45;;;;;;;18.02;14.80;;;;;;;;;;5033511;28;20043;-60
2021/09/14 12:59:11;;;;;;;17.98;13.93;;;;;;;;;;5034517;28;20017;-60
2021/09/14 13:01:37;;;;;;;20.10;14.73;;;;;;;;;;5033666;28;20030;-60
2021/09/14 13:04:03;;;;;;;16.05;14.38;;;;;;;;;;5032905;28;20026;-60
2021/09/14 13:06:29;;;;;;;16.23;14.52;;;;;;;;;;5030641;28;20096;-60
2021/09/14 13:08:55;;;;;;;15.10;13.50;;;;;;;;;;5031705;28;20533;-60
2021/09/14 13:11:21;;;;;;;18.90;15.27;;;;;;;;;;5028970;28;20056;-60
2021/09/14 13:16:32;;;;;;;15.82;14.20;;;;;;;;;;5031566;28;20144;-60
2021/09/14 13:18:58;;;;;;;17.52;13.75;;;;;;;;;;5031585;28;20029;-60
2021/09/14 13:21:25;;;;;;;17.02;14.40;;;;;;;;;;5032693;28;20021;-60
2021/09/14 13:23:51;;;;;;;20.50;14.15;;;;;;;;;;5033593;28;20041;-60
2021/09/14 13:26:18;;;;;;;16.80;14.82;;;;;;;;;;5032043;28;20025;-60
2021/09/14 13:28:44;;;;;;;16.38;14.30;;;;;;;;;;5034012;28;20056;-60
2021/09/14 13:31:10;;;;;;;19.95;14.90;;;;;;;;;;5034722;28;20569;-60
2021/09/14 13:33:36;;;;;;;17.80;15.15;;;;;;;;;;5031816;28;20108;-61
2021/09/14 13:36:03;;;;;;;17.85;14.48;;;;;;;;;;5035010;28;20037;-60
2021/09/14 13:38:30;;;;;;;17.03;14.23;;;;;;;;;;5038885;28;20491;-60
2021/09/14 13:41:03;;;;;;;16.47;14.30;;;;;;;;;;5035439;28;20274;-60
2021/09/14 13:43:35;;;;;;;17.45;14.77;;;;;;;;;;5033519;28;20621;-60
2021/09/14 13:46:14;;;;;;;17.13;14.80;;;;;;;;;;5031008;28;20022;-60
2021/09/14 13:48:42;;;;;;;17.63;14.80;;;;;;;;;;5026885;28;20029;-60
2021/09/14 13:51:08;;;;;;;17.73;14.25;;;;;;;;;;5031334;28;20045;-60
2021/09/14 13:53:34;;;;;;;15.90;14.30;;;;;;;;;;5033424;28;20017;-60
2021/09/14 13:56:01;;;;;;;19.80;15.13;;;;;;;;;;5032857;28;20078;-60
2021/09/14 13:58:27;;;;;;;20.13;15.20;;;;;;;;;;5033322;28;20032;-60
2021/09/14 14:00:53;;;;;;;17.17;15.23;;;;;;;;;;5032485;28;20032;-60
2021/09/14 14:03:19;;;;;;;17.17;15.48;;;;;;;;;;5033202;28;20140;-61
2021/09/14 14:05:45;;;;;;;17.60;15.05;;;;;;;;;;5031296;28;20029;-60
2021/09/14 14:08:11;;;;;;;18.20;14.63;;;;;;;;;;5030706;28;20033;-60
2021/09/14 14:10:37;;;;;;;16.90;15.30;;;;;;;;;;5030976;28;20049;-61
2021/09/14 14:13:03;;;;;;;17.27;15.32;;;;;;;;;;5029970;28;20030;-61
2021/09/14 14:15:29;;;;;;;17.20;15.45;;;;;;;;;;5030655;28;20393;-60
2021/09/14 14:17:55;;;;;;;16.67;15.00;;;;;;;;;;5028102;28;20029;-62
2021/09/14 14:20:21;;;;;;;17.48;15.40;;;;;;;;;;5033250;28;20436;-60
2021/09/14 14:22:47;;;;;;;16.63;14.80;;;;;;;;;;5024396;28;20025;-61
2021/09/14 14:25:12;;;;;;;17.65;14.77;;;;;;;;;;5045993;28;20048;-61
2021/09/14 14:27:38;;;;;;;20.35;14.20;;;;;;;;;;5014360;28;20054;-61
2021/09/14 14:30:05;;;;;;;16.23;14.40;;;;;;;;;;5032111;28;20397;-61
2021/09/14 14:32:31;;;;;;;18.48;14.88;;;;;;;;;;5029639;28;20131;-61
2021/09/14 14:34:57;;;;;;;16.63;14.90;;;;;;;;;;5033134;28;20040;-61
2021/09/14 14:37:23;;;;;;;17.48;15.32;;;;;;;;;;5024531;28;20033;-61
2021/09/14 14:39:49;;;;;;;17.08;14.88;;;;;;;;;;5031345;28;20064;-61
2021/09/14 14:42:15;;;;;;;17.38;14.73;;;;;;;;;;5031269;28;20049;-61
2021/09/14 14:44:43;;;;;;;17.52;14.85;;;;;;;;;;5031836;28;20026;-62
2021/09/14 14:47:09;;;;;;;19.20;15.32;;;;;;;;;;5036392;28;20018;-61
2021/09/14 14:49:36;;;;;;;16.35;14.57;;;;;;;;;;5031659;28;20030;-61
2021/09/14 14:52:01;;;;;;;18.45;15.40;;;;;;;;;;5019251;28;20168;-61
2021/09/14 14:54:27;;;;;;;16.98;15.07;;;;;;;;;;5034921;28;20104;-61
2021/09/14 14:56:53;;;;;;;16.55;14.88;;;;;;;;;;5035289;28;20052;-61
2021/09/14 14:59:19;;;;;;;19.17;14.80;;;;;;;;;;5036268;28;20029;-60
2021/09/14 15:01:45;;;;;;;17.83;14.85;;;;;;;;;;5033950;28;20033;-60
2021/09/14 15:04:11;;;;;;;17.40;15.43;;;;;;;;;;5036502;28;20032;-60
2021/09/14 15:06:37;;;;;;;17.40;15.20;;;;;;;;;;5030322;28;20021;-60
2021/09/14 15:09:03;;;;;;;19.00;15.65;;;;;;;;;;5035171;28;20425;-60
2021/09/14 15:11:29;;;;;;;19.00;15.32;;;;;;;;;;5029247;28;20140;-60
2021/09/14 15:13:55;;;;;;;17.73;15.90;;;;;;;;;;5042510;28;20030;-60
2021/09/14 15:16:21;;;;;;;18.20;16.23;;;;;;;;;;5028753;28;20166;-60